Aeroporto :
LOGIN :

Iscrizione | Disclaimer

   EN    FR    IT 

 










Sommario :    VFR   VFR Marginale   IFR   IFR Intensivo   IFR Molto Intensivo
Visibilità : 
Base nubi : 
>= 8 km
>= 3000ft
5 / 8 km
1000 / 3000 ft
1500m / 5 km
500 / 1000 ft
800 / 1500m
200 / 500 ft
< 800m
< 200 ft
Simboli :   Temporali  Nebbia  Neve Forte  Precipitazioni Forti  Vento > 20 kt
SIGMETs :   Varie  Temporali  Ghiacco  Turbolenza  Onda orograficha  Ceneri Vulcaniche







- Altitudine del aeroporto : 117 ft
- Codice IATA : NWI
- Carte del aeroporto


EGSH - Norwich

ULTIMO METAR :
  • 251120Z 33015G26KT 290V040 9999 SCT029 09/03 Q1030 NOSIG

METARs OBSOLETI :
  • 251050Z 34014G25KT 290V020 9999 BKN025 09/03 Q1030 NOSIG
  • 251020Z 33016G28KT 290V010 9999 BKN025 09/03 Q1030 NOSIG
  • 250950Z 33016KT 300V030 9999 BKN025 08/03 Q1030 NOSIG
  • 250920Z 33016G27KT 290V360 9999 SCT025 08/03 Q1029 NOSIG
  • 250850Z 32016KT 290V360 9999 SCT024 08/02 Q1029

TAF TAF EGSH
Valido dal 25 a 09 ore il 25 a 18 ore UTC


250757Z 2509/2518 33012KT 9999 FEW040
TEMPO 2509/2518 34016G26KT
ATIS : +44 1603 420 640
Nessun NOTAM noto per questo aeroporto.



MetMap, La meteo Aeronautica in un colpo d'occhio ! - Copyright ORBIFLY Dicembre 2007 - Disclaimer

ORBIFLY MET'MAP TEAM :

Programmazione e sviluppo : Alexandra Zaïnal
Concezione e sviluppo : Baudouin d'Aumeries
Co-Programmazione e sviluppo : Marc-Olivier Méhu
Supporto tecnico e logistico : Manuel Goepfert
Aiuto per la traduzione : Arnaldo La Scala

Contatto : metmap@orbifly.com




FONTI E CREDITI :

   NOAA